»·PEaware :: N369B KSUN-KBOI

N369B :: KSUN-KBOI

FLIGHT INFORMATION

Flight Status: Arrived
Operator: Privately registered:
United States
More flights under this callsign
Pilot: Danny S. (32185)
Aircraft: Unknown
(B58)
More flights by this aircraft type
Origin: KSUN Friedman Meml
United States
Destination: KBOI Boise Air Terminal/Gowen
United States
More flights between these airports :: More routes between these airports
Route: +AUREL3 SOLDE BOI
File this flight plan on PilotEdge
Remarks: ILS KSUN to KBOI
Altitude:
(Current/Filed)
11,000ft
Speed:
(Current/Filed)
170kts
Departed: 21-Nov-20 02:25 PM
Arrived: 21-Nov-20 03:03 PM
Distance/Time
Traveled:
83nm/0:37
Distance/Time
To Go:
Arrived

Flight Plot

Page will automatically refresh every two minutes.

Flight plan parsing failed; only flown route is shown


Map Options




Map Legend


Flown Route
Filed Route
Departure Airport
Arrival Airport
Navaid (VOR, NDB)
Fix

Horizontal Profiles

Position Reports

Time Latitude Longitude Heading Altitude Ground
Speed
21-Nov-20 14:11 43.500072 -114.294964 177 5285ft 0kts
21-Nov-20 14:12 43.500072 -114.294964 177 5286ft 0kts
21-Nov-20 14:13 43.500072 -114.294964 177 5286ft 0kts
21-Nov-20 14:14 43.500072 -114.294964 177 5286ft 0kts
21-Nov-20 14:15 43.500072 -114.294964 177 5286ft 0kts
21-Nov-20 14:16 43.500072 -114.294964 177 5286ft 0kts
21-Nov-20 14:17 43.500072 -114.294964 177 5286ft 0kts
21-Nov-20 14:17 43.500072 -114.294964 177 5286ft 0kts
21-Nov-20 14:19 43.500072 -114.294964 177 5286ft 0kts
21-Nov-20 14:19 43.500041 -114.294934 92 5285ft 0kts
21-Nov-20 14:20 43.500096 -114.294795 59 5286ft 0kts
21-Nov-20 14:22 43.500097 -114.294795 59 5286ft 0kts
21-Nov-20 14:22 43.500097 -114.294795 59 5286ft 0kts
21-Nov-20 14:24 43.501099 -114.294802 356 5287ft 23kts
21-Nov-20 14:24 43.509706 -114.302572 323 5318ft 51kts
21-Nov-20 14:26 43.511583 -114.304304 337 5324ft 0kts
21-Nov-20 14:26 43.507227 -114.298631 145 5354ft 95kts
21-Nov-20 14:27 43.472835 -114.282239 167 6913ft 155kts
21-Nov-20 14:28 43.429836 -114.263120 166 8331ft 175kts
21-Nov-20 14:29 43.379280 -114.241013 165 8508ft 198kts
21-Nov-20 14:30 43.333429 -114.222939 194 10340ft 151kts
21-Nov-20 14:31 43.317434 -114.276012 256 10979ft 176kts
21-Nov-20 14:32 43.282579 -114.317513 263 10982ft 175kts
21-Nov-20 14:33 43.292015 -114.382892 264 11003ft 183kts
21-Nov-20 14:34 43.282095 -114.450547 255 10986ft 180kts
21-Nov-20 14:35 43.268197 -114.516881 255 11002ft 179kts
21-Nov-20 14:36 43.260561 -114.583351 274 10997ft 180kts
21-Nov-20 14:37 43.270787 -114.651351 284 10999ft 183kts
21-Nov-20 14:38 43.283862 -114.718230 283 10997ft 180kts
21-Nov-20 14:39 43.296459 -114.785086 283 10998ft 181kts
21-Nov-20 14:40 43.309229 -114.852602 283 11000ft 183kts
21-Nov-20 14:41 43.321742 -114.919137 283 10999ft 178kts
21-Nov-20 14:42 43.334382 -114.986475 283 11003ft 180kts
21-Nov-20 14:43 43.346854 -115.053310 283 11000ft 178kts
21-Nov-20 14:44 43.359454 -115.120891 283 10989ft 184kts
21-Nov-20 14:45 43.372179 -115.189529 283 11007ft 186kts
21-Nov-20 14:46 43.384915 -115.258533 283 10995ft 185kts
21-Nov-20 14:47 43.397615 -115.327527 283 11003ft 186kts
21-Nov-20 14:48 43.410207 -115.396212 283 10999ft 185kts
21-Nov-20 14:49 43.422684 -115.464456 283 10998ft 184kts
21-Nov-20 14:50 43.435550 -115.534981 283 10222ft 197kts
21-Nov-20 14:51 43.448913 -115.608845 283 9004ft 198kts
21-Nov-20 14:52 43.462043 -115.681151 282 8084ft 187kts
21-Nov-20 14:53 43.459483 -115.750369 261 8014ft 177kts
21-Nov-20 14:54 43.450061 -115.818307 259 8002ft 184kts
21-Nov-20 14:55 43.452381 -115.888728 287 7538ft 193kts
21-Nov-20 14:56 43.474002 -115.956453 294 6638ft 191kts
21-Nov-20 14:57 43.496053 -116.020592 293 6503ft 181kts
21-Nov-20 14:58 43.513364 -116.071310 292 6408ft 104kts
21-Nov-20 14:59 43.526745 -116.112875 292 5832ft 131kts
21-Nov-20 15:00 43.544739 -116.162948 303 3645ft 124kts
21-Nov-20 15:01 43.555924 -116.195244 294 3070ft 87kts
21-Nov-20 15:02 43.561610 -116.208517 28 2867ft 0kts
21-Nov-20 15:03 43.562276 -116.206632 86 2867ft 0kts

Navigation Log

Ident Type
Flight plan parsing failed, navigation log unavailable